This is the latest recevied weather packets stored in our database for station/object N9WHM. If no packets are shown the sender has not sent any weather packets the latest 10 day(s).
| Time | Temp. | Humidity | Pressure | Rain* | Wind** | Luminosity | Snow |
|---|---|---|---|---|---|---|---|
| 1777731008 | 8.89° C | 53% | 1021.6 hPa | 0 mm | - | 279 W/m² | - |
| 1777730707 | 8.33° C | 55% | 1021.6 hPa | 0 mm | - | 265 W/m² | - |
| 1777730402 | 7.78° C | 57% | 1021.7 hPa | 0 mm | - | 252 W/m² | - |
| 1777730098 | 8.33° C | 58% | 1021.5 hPa | 0 mm | - | 238 W/m² | - |
| 1777729795 | 7.22° C | 58% | 1021.4 hPa | 0 mm | - | 225 W/m² | - |
| 1777729492 | 6.67° C | 60% | 1021.5 hPa | 0 mm | - | 213 W/m² | - |
| 1777729189 | 7.22° C | 58% | 1021.6 hPa | 0 mm | - | 199 W/m² | - |
| 1777728885 | 6.11° C | 63% | 1021.7 hPa | 0 mm | - | 93 W/m² | - |
| 1777728583 | 6.67° C | 62% | 1021.5 hPa | 0 mm | - | 177 W/m² | - |
| 1777728280 | 6.11° C | 63% | 1021.7 hPa | 0 mm | - | 165 W/m² | - |
| 1777727977 | 5.56° C | 66% | 1021.6 hPa | 0 mm | - | 154 W/m² | - |
| 1777727673 | 5° C | 68% | 1021.6 hPa | 0 mm | - | 142 W/m² | - |
| 1777727371 | 6.11° C | 65% | 1021.8 hPa | 0 mm | - | 132 W/m² | - |
| 1777727068 | 6.11° C | 67% | 1021.5 hPa | 0 mm | - | 123 W/m² | - |
| 1777726765 | 5.56° C | 70% | 1021.6 hPa | 0 mm | - | 113 W/m² | - |
| 1777726463 | 4.44° C | 70% | 1021.5 hPa | 0 mm | - | 104 W/m² | - |
| 1777726159 | 3.89° C | 71% | 1021.7 hPa | 0 mm | - | 95 W/m² | - |
| 1777725856 | 3.89° C | 73% | 1021.5 hPa | 0 mm | - | 87 W/m² | - |
| 1777725554 | 3.33° C | 74% | 1021.3 hPa | 0 mm | - | 79 W/m² | - |
| 1777725251 | 2.78° C | 76% | 1021.5 hPa | 0 mm | - | 70 W/m² | - |
| 1777724948 | 2.22° C | 77% | 1021.5 hPa | 0 mm | - | 63 W/m² | - |
| 1777724644 | 1.67° C | 78% | 1021.4 hPa | 0 mm | - | 55 W/m² | - |
| 1777724342 | 1.67° C | 80% | 1021.5 hPa | 0 mm | - | 31 W/m² | - |
| 1777724039 | 1.11° C | 81% | 1021.5 hPa | 0 mm | - | 29 W/m² | - |
| 1777723736 | 0.56° C | 83% | 1021.3 hPa | 0 mm | - | 35 W/m² | - |
* Rain latest hour (hover to see other rain measurements)
** Current wind speed in m/s (hover to see current wind gust speed)